Ventura — ZCDT2 — position and weather

sailwx.info

Track history (hours):
 
Tides and Currents Weather Stations Pressure Air Temp Water Temp Dewpoint Dewpoint Depression Visibility Wind Speed Wind Dir Waves Ship Positions

Ventura

Last reported at 2015-May-27 04:32 UTC. Time now 2015-May-27 05:34 UTC.
Position N 49°23' W 002°36'.

Length 288 m; draft 8.6 m.

Type: Passenger vessel. MMSI: 310562000.

Date/timePositionNaut miles runAvg speedWind from/ knotsBaromVisibWave heightAir tempDewpointWater temp
2015-May-27 04:32N 49°23' W 002°36'39 7.8
2015-May-26 23:33N 49°56' W 003°08'11 9.8
2015-May-26 22:28N 49°59' W 002°52'3411.3
2015-May-26 19:28N 50°08' W 002°01'2411.8
2015-May-26 17:28N 50°14' W 001°25'1411.3
2015-May-26 16:12N 50°18' W 001°04'710.6
2015-May-26 15:32N 50°20' W 000°53'1110.2
2015-May-26 14:29N 50°23' W 000°37'1010.2
2015-May-26 13:33N 50°26' W 000°23'1510.4
2015-May-26 12:09N 50°29' W 000°01'610.5
2015-May-26 11:33N 50°31' E 000°09'1111.1
2015-May-26 10:33N 50°33' E 000°26'1111.4
2015-May-26 09:33N 50°38' E 000°42'1111.5
2015-May-26 08:33N 50°45' E 000°56'1210.6
2015-May-26 07:28N 50°53' E 001°10'9 9.8
2015-May-26 06:33N 50°60' E 001°19'3 5.4
2015-May-26 06:00N 51°00' E 001°24'715.5 310 / 141022.210.8 0.511.5 8.512.2
2015-May-26 05:33N 51°06' E 001°30'9 9.1
2015-May-26 04:33N 51°11' E 001°41'10 9.5
2015-May-26 03:33N 51°19' E 001°50'9 9.5
2015-May-26 02:34N 51°26' E 002°01'9 9.4
2015-May-26 01:33N 51°21' E 002°13'10 9.9
2015-May-26 00:33N 51°23' E 002°29'1010.3
2015-May-25 23:33N 51°22' E 002°45'1414.2
2015-May-25 22:33N 51°24' E 003°08'4 4.0
2015-May-25 21:30N 51°20' E 003°12'0 0.0
2015-May-25 20:33N 51°20' E 003°12'0 0.0
2015-May-25 19:30N 51°20' E 003°12'0 0.0
2015-May-25 18:33N 51°20' E 003°12'0 0.0
2015-May-25 17:33N 51°20' E 003°12'0 0.0
2015-May-25 16:33N 51°20' E 003°12'0 0.0
2015-May-25 15:33N 51°20' E 003°12'0 0.0
2015-May-25 14:33N 51°20' E 003°12'0 0.0
2015-May-25 13:33N 51°20' E 003°12'0 0.0
2015-May-25 12:33N 51°20' E 003°12'0 0.0
2015-May-25 11:33N 51°20' E 003°12'0 0.0
2015-May-25 10:33N 51°20' E 003°12'0 0.1
2015-May-25 09:28N 51°20' E 003°12'0 0.0
2015-May-25 08:28N 51°20' E 003°12'0 0.0
2015-May-25 07:28N 51°20' E 003°12'0 0.0
2015-May-25 06:28N 51°20' E 003°12'0 0.0
2015-May-25 05:32N 51°20' E 003°12'7 7.4
2015-May-25 04:34N 51°24' E 003°03'1414.2
2015-May-25 03:34N 51°22' E 002°41'1515.3
2015-May-25 02:34N 51°18' E 002°17'1616.5
2015-May-25 01:34N 51°11' E 001°53'1817.8
2015-May-25 00:34N 50°58' E 001°34'2618.0
2015-May-24 23:06N 50°35' E 001°12'1118.7
2015-May-24 22:31N 50°29' E 000°58'5217.8
2015-May-24 19:33N 50°27' W 000°24'1818.2
2015-May-24 18:34N 50°35' W 000°49'1514.8
2015-May-24 17:33N 50°45' W 001°07'1010.2
2015-May-24 16:33N 50°51' W 001°20'4 3.6
2015-May-24 15:31N 50°54' W 001°24'0 0.0
2015-May-24 14:31N 50°54' W 001°24'0 0.0
2015-May-24 13:31N 50°54' W 001°24'0 0.0
2015-May-24 12:31N 50°54' W 001°24'0 0.0
2015-May-24 11:31N 50°54' W 001°24'0 0.0
2015-May-24 10:31N 50°54' W 001°24'0 0.0
2015-May-24 09:31N 50°54' W 001°24'0 0.0
2015-May-24 08:31N 50°54' W 001°24'0 0.0
2015-May-24 07:31N 50°54' W 001°24'0 0.0
2015-May-24 06:31N 50°54' W 001°24'0 0.4
2015-May-24 05:33N 50°53' W 001°24'8 7.7
2015-May-24 04:33N 50°47' W 001°18'1414.1
2015-May-24 03:33N 50°40' W 000°58'1010.2
2015-May-24 02:33N 50°31' W 001°06'1312.5
2015-May-24 01:33N 50°27' W 001°24'1312.5
2015-May-24 00:33N 50°23' W 001°43'3510.2
2015-May-23 21:09N 49°50' W 002°03'2312.4
2015-May-23 19:19N 49°28' W 002°11'1010.8
2015-May-23 18:24N 49°22' W 002°22'113 6.3
2015-May-23 00:27N 50°29' W 000°00'1719.4
2015-May-22 23:33N 50°34' E 000°25'2019.6
2015-May-22 22:33N 50°43' E 000°53'2322.4
2015-May-22 21:33N 50°57' E 001°21'2323.0
2015-May-22 20:33N 51°13' E 001°47'2120.6
2015-May-22 19:33N 51°30' E 002°05'2019.8
2015-May-22 18:33N 51°45' E 002°26'1919.2
2015-May-22 17:33N 52°00' E 002°44'1919.0
2015-May-22 16:33N 52°14' E 003°06'1919.3
2015-May-22 15:33N 52°26' E 003°31'2020.2
2015-May-22 14:33N 52°31' E 004°03'1514.9
2015-May-22 13:33N 52°29' E 004°27'6 5.7
2015-May-22 12:34N 52°28' E 004°36'4 3.9
2015-May-22 11:33N 52°26' E 004°42'7 7.1
2015-May-22 10:34N 52°24' E 004°53'2 1.6
2015-May-22 09:33N 52°23' E 004°55'0 0.0
2015-May-22 08:30N 52°23' E 004°55'0 0.0
2015-May-22 07:33N 52°23' E 004°55'0 0.0
2015-May-22 06:33N 52°23' E 004°55'0 0.0
2015-May-22 05:33N 52°23' E 004°55'0 0.0
2015-May-22 04:33N 52°23' E 004°55'0 0.0
2015-May-22 03:33N 52°23' E 004°55'0 0.0
2015-May-22 02:33N 52°23' E 004°55'0 0.0
2015-May-22 01:33N 52°23' E 004°55'0 0.0
2015-May-22 00:33N 52°23' E 004°55'0 0.0
2015-May-21 23:33N 52°23' E 004°55'0 0.0
2015-May-21 22:33N 52°23' E 004°55'0 0.0
2015-May-21 21:33N 52°23' E 004°55'0 0.0
2015-May-21 20:33N 52°23' E 004°55'0 0.0
2015-May-21 19:33N 52°23' E 004°55'0 0.0
2015-May-21 18:33N 52°23' E 004°55'0 0.0
2015-May-21 17:33N 52°23' E 004°55'0 0.0
2015-May-21 16:33N 52°23' E 004°55'0 0.0
2015-May-21 15:33N 52°23' E 004°55'0 0.0
2015-May-21 14:33N 52°23' E 004°55'0 0.0
2015-May-21 13:33N 52°23' E 004°55'0 0.0
2015-May-21 12:33N 52°23' E 004°55'1 0.6
2015-May-21 11:33N 52°23' E 004°56'6 5.8
2015-May-21 10:34N 52°25' E 004°47'7 6.8
2015-May-21 09:33N 52°28' E 004°37'1 1.3
2015-May-21 08:33N 52°28' E 004°35'5 4.9
2015-May-21 07:33N 52°29' E 004°27'1514.6
2015-May-21 06:34N 52°28' E 004°03'1918.7
2015-May-21 05:33N 52°21' E 003°34'2320.2
2015-May-21 04:24N 52°06' E 003°05'3921.2
2015-May-21 02:33N 51°37' E 002°23'2020.3
2015-May-21 01:34N 51°19' E 002°07'1615.6
2015-May-21 00:33N 51°08' E 001°50'2120.6
2015-May-20 23:34N 50°55' E 001°25'1919.3
2015-May-20 22:33N 50°37' E 001°12'2120.7
2015-May-20 21:32N 50°27' E 000°42'2521.2
2015-May-20 20:21N 50°20' E 000°04'1720.4
2015-May-20 19:30N 50°27' W 000°21'1919.9
2015-May-20 18:34N 50°34' W 000°47'1515.1
2015-May-20 17:33N 50°44' W 001°05'1111.1
2015-May-20 16:34N 50°51' W 001°20'4 3.9
2015-May-20 15:33N 50°53' W 001°24'0 0.0
2015-May-20 14:33N 50°53' W 001°24'0 0.0
2015-May-20 13:33N 50°53' W 001°24'0 0.0
2015-May-20 12:33N 50°53' W 001°24'0 0.0
2015-May-20 11:33N 50°53' W 001°24'0 0.0
2015-May-20 10:33N 50°53' W 001°24'0 0.0
2015-May-20 09:33N 50°53' W 001°24'0 0.0
2015-May-20 08:33N 50°53' W 001°24'0 0.0
2015-May-20 07:33N 50°53' W 001°24'0 0.0
2015-May-20 06:33N 50°53' W 001°24'0 0.2
2015-May-20 05:33N 50°53' W 001°24'7 6.6
2015-May-20 04:33N 50°48' W 001°18'1212.2
2015-May-20 03:34N 50°43' W 001°00'10 9.6
2015-May-20 02:33N 50°33' W 001°00'1111.3
2015-May-20 01:33N 50°29' W 001°17'1211.4
2015-May-20 00:32N 50°24' W 001°34'1413.1
2015-May-19 23:26N 50°19' W 001°54'21917.6
2015-May-19 11:00N 47°54' W 006°06'30017.6 290 / 501015.210.8 3.015.5 4.912.8
2015-May-18 18:00N 43°48' W 010°12'13118.7 350 / 321021.710.8 2.514.0 5.615.3
2015-May-18 11:00N 41°48' W 011°24'9118.3 360 / 251020.010.8 3.015.513.016.1
2015-May-18 06:00N 40°24' W 012°12'12617.0 010 / 291019.710.8 2.515.012.316.3
2015-May-17 22:33N 38°28' W 013°18'2318.2
2015-May-17 21:18N 38°07' W 013°30'1618.0
2015-May-17 20:24N 37°52' W 013°38'3417.8
2015-May-17 18:28N 37°21' W 013°54'918.3
2015-May-17 18:00N 37°12' W 013°54'6017.2 020 / 261020.510.8 2.516.513.916.8
2015-May-17 14:29N 36°18' W 014°28'1616.9
2015-May-17 13:32N 36°03' W 014°35'4818.8
2015-May-17 11:00N 35°18' W 014°54'   010 / 271023.110.8 5.017.314.216.5
Track history (hours):
 
Tides and Currents Weather Stations Pressure Air Temp Water Temp Dewpoint Dewpoint Depression Visibility Wind Speed Wind Dir Waves Ship Positions

Ventura

Last reported at 2015-May-27 04:32 UTC. Time now 2015-May-27 05:34 UTC.
Position N 49°23' W 002°36'.

Length 288 m; draft 8.6 m.

Type: Passenger vessel. MMSI: 310562000.

Date/timePositionNaut miles runAvg speedWind from/ knotsBaromVisibWave heightAir tempDewpointWater temp
2015-May-27 04:32N 49°23' W 002°36'39 7.8
2015-May-26 23:33N 49°56' W 003°08'11 9.8
2015-May-26 22:28N 49°59' W 002°52'3411.3
2015-May-26 19:28N 50°08' W 002°01'2411.8
2015-May-26 17:28N 50°14' W 001°25'1411.3
2015-May-26 16:12N 50°18' W 001°04'710.6
2015-May-26 15:32N 50°20' W 000°53'1110.2
2015-May-26 14:29N 50°23' W 000°37'1010.2
2015-May-26 13:33N 50°26' W 000°23'1510.4
2015-May-26 12:09N 50°29' W 000°01'610.5
2015-May-26 11:33N 50°31' E 000°09'1111.1
2015-May-26 10:33N 50°33' E 000°26'1111.4
2015-May-26 09:33N 50°38' E 000°42'1111.5
2015-May-26 08:33N 50°45' E 000°56'1210.6
2015-May-26 07:28N 50°53' E 001°10'9 9.8
2015-May-26 06:33N 50°60' E 001°19'3 5.4
2015-May-26 06:00N 51°00' E 001°24'715.5 310 / 141022.210.8 0.511.5 8.512.2
2015-May-26 05:33N 51°06' E 001°30'9 9.1
2015-May-26 04:33N 51°11' E 001°41'10 9.5
2015-May-26 03:33N 51°19' E 001°50'9 9.5
2015-May-26 02:34N 51°26' E 002°01'9 9.4
2015-May-26 01:33N 51°21' E 002°13'10 9.9
2015-May-26 00:33N 51°23' E 002°29'1010.3
2015-May-25 23:33N 51°22' E 002°45'1414.2
2015-May-25 22:33N 51°24' E 003°08'4 4.0
2015-May-25 21:30N 51°20' E 003°12'0 0.0
2015-May-25 20:33N 51°20' E 003°12'0 0.0
2015-May-25 19:30N 51°20' E 003°12'0 0.0
2015-May-25 18:33N 51°20' E 003°12'0 0.0
2015-May-25 17:33N 51°20' E 003°12'0 0.0
2015-May-25 16:33N 51°20' E 003°12'0 0.0
2015-May-25 15:33N 51°20' E 003°12'0 0.0
2015-May-25 14:33N 51°20' E 003°12'0 0.0
2015-May-25 13:33N 51°20' E 003°12'0 0.0
2015-May-25 12:33N 51°20' E 003°12'0 0.0
2015-May-25 11:33N 51°20' E 003°12'0 0.0
2015-May-25 10:33N 51°20' E 003°12'0 0.1
2015-May-25 09:28N 51°20' E 003°12'0 0.0
2015-May-25 08:28N 51°20' E 003°12'0 0.0
2015-May-25 07:28N 51°20' E 003°12'0 0.0
2015-May-25 06:28N 51°20' E 003°12'0 0.0
2015-May-25 05:32N 51°20' E 003°12'7 7.4
2015-May-25 04:34N 51°24' E 003°03'1414.2
2015-May-25 03:34N 51°22' E 002°41'1515.3
2015-May-25 02:34N 51°18' E 002°17'1616.5
2015-May-25 01:34N 51°11' E 001°53'1817.8
2015-May-25 00:34N 50°58' E 001°34'2618.0
2015-May-24 23:06N 50°35' E 001°12'1118.7
2015-May-24 22:31N 50°29' E 000°58'5217.8
2015-May-24 19:33N 50°27' W 000°24'1818.2
2015-May-24 18:34N 50°35' W 000°49'1514.8
2015-May-24 17:33N 50°45' W 001°07'1010.2
2015-May-24 16:33N 50°51' W 001°20'4 3.6
2015-May-24 15:31N 50°54' W 001°24'0 0.0
2015-May-24 14:31N 50°54' W 001°24'0 0.0
2015-May-24 13:31N 50°54' W 001°24'0 0.0
2015-May-24 12:31N 50°54' W 001°24'0 0.0
2015-May-24 11:31N 50°54' W 001°24'0 0.0
2015-May-24 10:31N 50°54' W 001°24'0 0.0
2015-May-24 09:31N 50°54' W 001°24'0 0.0
2015-May-24 08:31N 50°54' W 001°24'0 0.0
2015-May-24 07:31N 50°54' W 001°24'0 0.0
2015-May-24 06:31N 50°54' W 001°24'0 0.4
2015-May-24 05:33N 50°53' W 001°24'8 7.7
2015-May-24 04:33N 50°47' W 001°18'1414.1
2015-May-24 03:33N 50°40' W 000°58'1010.2
2015-May-24 02:33N 50°31' W 001°06'1312.5
2015-May-24 01:33N 50°27' W 001°24'1312.5
2015-May-24 00:33N 50°23' W 001°43'3510.2
2015-May-23 21:09N 49°50' W 002°03'2312.4
2015-May-23 19:19N 49°28' W 002°11'1010.8
2015-May-23 18:24N 49°22' W 002°22'113 6.3
2015-May-23 00:27N 50°29' W 000°00'1719.4
2015-May-22 23:33N 50°34' E 000°25'2019.6
2015-May-22 22:33N 50°43' E 000°53'2322.4
2015-May-22 21:33N 50°57' E 001°21'2323.0
2015-May-22 20:33N 51°13' E 001°47'2120.6
2015-May-22 19:33N 51°30' E 002°05'2019.8
2015-May-22 18:33N 51°45' E 002°26'1919.2
2015-May-22 17:33N 52°00' E 002°44'1919.0
2015-May-22 16:33N 52°14' E 003°06'1919.3
2015-May-22 15:33N 52°26' E 003°31'2020.2
2015-May-22 14:33N 52°31' E 004°03'1514.9
2015-May-22 13:33N 52°29' E 004°27'6 5.7
2015-May-22 12:34N 52°28' E 004°36'4 3.9
2015-May-22 11:33N 52°26' E 004°42'7 7.1
2015-May-22 10:34N 52°24' E 004°53'2 1.6
2015-May-22 09:33N 52°23' E 004°55'0 0.0
2015-May-22 08:30N 52°23' E 004°55'0 0.0
2015-May-22 07:33N 52°23' E 004°55'0 0.0
2015-May-22 06:33N 52°23' E 004°55'0 0.0
2015-May-22 05:33N 52°23' E 004°55'0 0.0
2015-May-22 04:33N 52°23' E 004°55'0 0.0
2015-May-22 03:33N 52°23' E 004°55'0 0.0
2015-May-22 02:33N 52°23' E 004°55'0 0.0
2015-May-22 01:33N 52°23' E 004°55'0 0.0
2015-May-22 00:33N 52°23' E 004°55'0 0.0
2015-May-21 23:33N 52°23' E 004°55'0 0.0
2015-May-21 22:33N 52°23' E 004°55'0 0.0
2015-May-21 21:33N 52°23' E 004°55'0 0.0
2015-May-21 20:33N 52°23' E 004°55'0 0.0
2015-May-21 19:33N 52°23' E 004°55'0 0.0
2015-May-21 18:33N 52°23' E 004°55'0 0.0
2015-May-21 17:33N 52°23' E 004°55'0 0.0
2015-May-21 16:33N 52°23' E 004°55'0 0.0
2015-May-21 15:33N 52°23' E 004°55'0 0.0
2015-May-21 14:33N 52°23' E 004°55'0 0.0
2015-May-21 13:33N 52°23' E 004°55'0 0.0
2015-May-21 12:33N 52°23' E 004°55'1 0.6
2015-May-21 11:33N 52°23' E 004°56'6 5.8
2015-May-21 10:34N 52°25' E 004°47'7 6.8
2015-May-21 09:33N 52°28' E 004°37'1 1.3
2015-May-21 08:33N 52°28' E 004°35'5 4.9
2015-May-21 07:33N 52°29' E 004°27'1514.6
2015-May-21 06:34N 52°28' E 004°03'1918.7
2015-May-21 05:33N 52°21' E 003°34'2320.2
2015-May-21 04:24N 52°06' E 003°05'3921.2
2015-May-21 02:33N 51°37' E 002°23'2020.3
2015-May-21 01:34N 51°19' E 002°07'1615.6
2015-May-21 00:33N 51°08' E 001°50'2120.6
2015-May-20 23:34N 50°55' E 001°25'1919.3
2015-May-20 22:33N 50°37' E 001°12'2120.7
2015-May-20 21:32N 50°27' E 000°42'2521.2
2015-May-20 20:21N 50°20' E 000°04'1720.4
2015-May-20 19:30N 50°27' W 000°21'1919.9
2015-May-20 18:34N 50°34' W 000°47'1515.1
2015-May-20 17:33N 50°44' W 001°05'1111.1
2015-May-20 16:34N 50°51' W 001°20'4 3.9
2015-May-20 15:33N 50°53' W 001°24'0 0.0
2015-May-20 14:33N 50°53' W 001°24'0 0.0
2015-May-20 13:33N 50°53' W 001°24'0 0.0
2015-May-20 12:33N 50°53' W 001°24'0 0.0
2015-May-20 11:33N 50°53' W 001°24'0 0.0
2015-May-20 10:33N 50°53' W 001°24'0 0.0
2015-May-20 09:33N 50°53' W 001°24'0 0.0
2015-May-20 08:33N 50°53' W 001°24'0 0.0
2015-May-20 07:33N 50°53' W 001°24'0 0.0
2015-May-20 06:33N 50°53' W 001°24'0 0.2
2015-May-20 05:33N 50°53' W 001°24'7 6.6
2015-May-20 04:33N 50°48' W 001°18'1212.2
2015-May-20 03:34N 50°43' W 001°00'10 9.6
2015-May-20 02:33N 50°33' W 001°00'1111.3
2015-May-20 01:33N 50°29' W 001°17'1211.4
2015-May-20 00:32N 50°24' W 001°34'1413.1
2015-May-19 23:26N 50°19' W 001°54'21917.6
2015-May-19 11:00N 47°54' W 006°06'30017.6 290 / 501015.210.8 3.015.5 4.912.8
2015-May-18 18:00N 43°48' W 010°12'13118.7 350 / 321021.710.8 2.514.0 5.615.3
2015-May-18 11:00N 41°48' W 011°24'9118.3 360 / 251020.010.8 3.015.513.016.1
2015-May-18 06:00N 40°24' W 012°12'12617.0 010 / 291019.710.8 2.515.012.316.3
2015-May-17 22:33N 38°28' W 013°18'2318.2
2015-May-17 21:18N 38°07' W 013°30'1618.0
2015-May-17 20:24N 37°52' W 013°38'3417.8
2015-May-17 18:28N 37°21' W 013°54'918.3
2015-May-17 18:00N 37°12' W 013°54'6017.2 020 / 261020.510.8 2.516.513.916.8
2015-May-17 14:29N 36°18' W 014°28'1616.9
2015-May-17 13:32N 36°03' W 014°35'4818.8
2015-May-17 11:00N 35°18' W 014°54'   010 / 271023.110.8 5.017.314.216.5

Dump ship's entire track history